sensor_id;sensor_type;location;lat;lon;timestamp;pressure;altitude;pressure_sealevel;temperature;humidity
66547;BME280;53400;50.364;14.874;2023-05-10T00:00:17;98384.97;;;8.87;68.48
66547;BME280;53400;50.364;14.874;2023-05-10T00:03:03;98387.41;;;8.89;68.63
66547;BME280;53400;50.364;14.874;2023-05-10T00:05:30;98379.13;;;8.73;69.77
66547;BME280;53400;50.364;14.874;2023-05-10T00:07:56;98377.19;;;8.57;69.97
66547;BME280;53400;50.364;14.874;2023-05-10T00:10:22;98376.28;;;8.52;70.46
66547;BME280;53400;50.364;14.874;2023-05-10T00:12:50;98375.22;;;8.64;70.40
66547;BME280;53400;50.364;14.874;2023-05-10T00:15:19;98376.16;;;8.58;70.56
66547;BME280;53400;50.364;14.874;2023-05-10T00:17:45;98373.53;;;8.46;70.82
66547;BME280;53400;50.364;14.874;2023-05-10T00:20:11;98375.47;;;8.51;70.64
66547;BME280;53400;50.364;14.874;2023-05-10T00:22:37;98375.13;;;8.36;71.49
66547;BME280;53400;50.364;14.874;2023-05-10T00:25:04;98370.53;;;8.31;71.82
66547;BME280;53400;50.364;14.874;2023-05-10T00:27:30;98370.63;;;8.24;72.22
66547;BME280;53400;50.364;14.874;2023-05-10T00:29:57;98362.75;;;8.30;71.53
66547;BME280;53400;50.364;14.874;2023-05-10T00:32:24;98369.19;;;8.05;72.60
66547;BME280;53400;50.364;14.874;2023-05-10T00:34:49;98357.34;;;8.13;72.42
66547;BME280;53400;50.364;14.874;2023-05-10T00:37:16;98359.75;;;8.14;72.84
66547;BME280;53400;50.364;14.874;2023-05-10T00:39:42;98361.34;;;8.27;72.14
66547;BME280;53400;50.364;14.874;2023-05-10T00:42:08;98359.91;;;7.96;73.49
66547;BME280;53400;50.364;14.874;2023-05-10T00:44:33;98361.19;;;8.05;73.88
66547;BME280;53400;50.364;14.874;2023-05-10T00:47:01;98358.03;;;8.08;73.16
66547;BME280;53400;50.364;14.874;2023-05-10T00:49:27;98363.16;;;8.10;72.96
66547;BME280;53400;50.364;14.874;2023-05-10T00:51:57;98353.50;;;8.09;73.33
66547;BME280;53400;50.364;14.874;2023-05-10T00:54:23;98353.09;;;7.88;74.55
66547;BME280;53400;50.364;14.874;2023-05-10T00:56:49;98350.84;;;7.97;73.94
66547;BME280;53400;50.364;14.874;2023-05-10T00:59:15;98342.31;;;7.95;74.09
66547;BME280;53400;50.364;14.874;2023-05-10T01:01:42;98347.06;;;7.69;75.29
66547;BME280;53400;50.364;14.874;2023-05-10T01:04:10;98350.31;;;7.59;76.27
66547;BME280;53400;50.364;14.874;2023-05-10T01:06:38;98347.31;;;7.68;75.92
66547;BME280;53400;50.364;14.874;2023-05-10T01:09:03;98344.66;;;7.79;75.27
66547;BME280;53400;50.364;14.874;2023-05-10T01:11:30;98335.41;;;8.22;73.60
66547;BME280;53400;50.364;14.874;2023-05-10T01:13:57;98343.69;;;7.97;74.08
66547;BME280;53400;50.364;14.874;2023-05-10T01:16:24;98341.97;;;7.91;74.51
66547;BME280;53400;50.364;14.874;2023-05-10T01:18:51;98335.47;;;7.87;74.63
66547;BME280;53400;50.364;14.874;2023-05-10T01:21:25;98331.19;;;7.86;74.71
66547;BME280;53400;50.364;14.874;2023-05-10T01:24:40;98337.13;;;7.65;76.64
66547;BME280;53400;50.364;14.874;2023-05-10T01:27:41;98334.44;;;7.76;75.49
66547;BME280;53400;50.364;14.874;2023-05-10T01:33:15;98333.03;;;7.86;74.48
66547;BME280;53400;50.364;14.874;2023-05-10T01:35:49;98338.25;;;7.80;75.45
66547;BME280;53400;50.364;14.874;2023-05-10T01:38:21;98336.16;;;7.94;74.82
66547;BME280;53400;50.364;14.874;2023-05-10T01:40:53;98339.38;;;7.96;74.00
66547;BME280;53400;50.364;14.874;2023-05-10T01:43:28;98339.88;;;7.70;75.56
66547;BME280;53400;50.364;14.874;2023-05-10T01:45:59;98335.03;;;7.43;77.03
66547;BME280;53400;50.364;14.874;2023-05-10T01:48:32;98332.38;;;7.55;76.75
66547;BME280;53400;50.364;14.874;2023-05-10T01:50:58;98337.47;;;7.21;78.64
66547;BME280;53400;50.364;14.874;2023-05-10T01:53:24;98339.06;;;7.22;78.76
66547;BME280;53400;50.364;14.874;2023-05-10T01:55:53;98334.44;;;7.41;77.76
66547;BME280;53400;50.364;14.874;2023-05-10T01:58:22;98332.72;;;7.58;77.13
66547;BME280;53400;50.364;14.874;2023-05-10T02:00:51;98330.06;;;7.58;77.01
66547;BME280;53400;50.364;14.874;2023-05-10T02:03:21;98331.06;;;7.81;75.83
66547;BME280;53400;50.364;14.874;2023-05-10T02:05:50;98325.78;;;7.34;77.95
66547;BME280;53400;50.364;14.874;2023-05-10T02:08:18;98334.31;;;7.48;77.36
66547;BME280;53400;50.364;14.874;2023-05-10T02:10:46;98327.59;;;7.45;77.37
66547;BME280;53400;50.364;14.874;2023-05-10T02:13:16;98331.44;;;7.49;77.20
66547;BME280;53400;50.364;14.874;2023-05-10T02:15:42;98331.19;;;7.63;76.41
66547;BME280;53400;50.364;14.874;2023-05-10T02:18:10;98329.19;;;7.81;75.57
66547;BME280;53400;50.364;14.874;2023-05-10T02:20:37;98324.81;;;7.75;75.15
66547;BME280;53400;50.364;14.874;2023-05-10T02:23:06;98329.66;;;7.78;75.43
66547;BME280;53400;50.364;14.874;2023-05-10T02:25:33;98324.78;;;7.87;75.49
66547;BME280;53400;50.364;14.874;2023-05-10T02:28:02;98333.16;;;7.79;76.50
66547;BME280;53400;50.364;14.874;2023-05-10T02:30:29;98332.47;;;7.72;76.20
66547;BME280;53400;50.364;14.874;2023-05-10T02:32:57;98326.44;;;7.41;77.91
66547;BME280;53400;50.364;14.874;2023-05-10T02:35:25;98323.00;;;7.52;77.15
66547;BME280;53400;50.364;14.874;2023-05-10T02:37:52;98320.31;;;7.64;76.60
66547;BME280;53400;50.364;14.874;2023-05-10T02:40:21;98331.19;;;7.74;77.08
66547;BME280;53400;50.364;14.874;2023-05-10T02:42:50;98328.28;;;7.76;75.97
66547;BME280;53400;50.364;14.874;2023-05-10T02:45:21;98322.28;;;7.57;76.73
66547;BME280;53400;50.364;14.874;2023-05-10T02:47:49;98323.44;;;7.38;77.38
66547;BME280;53400;50.364;14.874;2023-05-10T02:50:15;98328.19;;;7.47;77.35
66547;BME280;53400;50.364;14.874;2023-05-10T02:52:44;98320.78;;;7.61;76.39
66547;BME280;53400;50.364;14.874;2023-05-10T02:55:15;98325.19;;;7.44;78.24
66547;BME280;53400;50.364;14.874;2023-05-10T02:57:48;98320.31;;;7.41;77.55
66547;BME280;53400;50.364;14.874;2023-05-10T03:00:15;98316.13;;;7.33;78.23
66547;BME280;53400;50.364;14.874;2023-05-10T03:02:44;98320.66;;;7.32;78.43
66547;BME280;53400;50.364;14.874;2023-05-10T03:05:10;98319.38;;;7.23;78.13
66547;BME280;53400;50.364;14.874;2023-05-10T03:07:36;98326.44;;;7.41;77.98
66547;BME280;53400;50.364;14.874;2023-05-10T03:10:02;98325.31;;;7.49;77.20
66547;BME280;53400;50.364;14.874;2023-05-10T03:12:41;98331.53;;;7.54;76.51
66547;BME280;53400;50.364;14.874;2023-05-10T03:15:13;98329.13;;;7.65;76.14
66547;BME280;53400;50.364;14.874;2023-05-10T03:17:47;98329.13;;;7.65;76.99
66547;BME280;53400;50.364;14.874;2023-05-10T03:20:21;98328.88;;;7.66;76.02
66547;BME280;53400;50.364;14.874;2023-05-10T03:22:51;98327.97;;;7.49;77.15
66547;BME280;53400;50.364;14.874;2023-05-10T03:25:20;98321.13;;;7.29;77.92
66547;BME280;53400;50.364;14.874;2023-05-10T03:27:48;98328.06;;;7.07;79.14
66547;BME280;53400;50.364;14.874;2023-05-10T03:30:16;98319.03;;;7.20;78.74
66547;BME280;53400;50.364;14.874;2023-05-10T03:32:43;98321.91;;;7.30;78.79
66547;BME280;53400;50.364;14.874;2023-05-10T03:35:09;98324.59;;;7.30;78.09
66547;BME280;53400;50.364;14.874;2023-05-10T03:37:36;98322.16;;;7.28;77.98
66547;BME280;53400;50.364;14.874;2023-05-10T03:40:02;98323.19;;;7.51;78.32
66547;BME280;53400;50.364;14.874;2023-05-10T03:42:28;98317.91;;;7.27;78.59
66547;BME280;53400;50.364;14.874;2023-05-10T03:44:54;98319.50;;;7.28;78.58
66547;BME280;53400;50.364;14.874;2023-05-10T03:47:21;98319.16;;;7.37;78.98
66547;BME280;53400;50.364;14.874;2023-05-10T03:49:47;98318.94;;;7.50;78.64
66547;BME280;53400;50.364;14.874;2023-05-10T03:52:13;98318.66;;;7.75;77.60
66547;BME280;53400;50.364;14.874;2023-05-10T03:54:39;98318.53;;;7.93;76.52
66547;BME280;53400;50.364;14.874;2023-05-10T03:57:05;98322.84;;;7.82;76.20
66547;BME280;53400;50.364;14.874;2023-05-10T03:59:31;98318.22;;;8.18;75.35
66547;BME280;53400;50.364;14.874;2023-05-10T04:01:57;98319.00;;;8.71;73.94
66547;BME280;53400;50.364;14.874;2023-05-10T04:04:24;98319.41;;;8.80;73.89
66547;BME280;53400;50.364;14.874;2023-05-10T04:06:50;98312.13;;;9.09;73.23
66547;BME280;53400;50.364;14.874;2023-05-10T04:09:16;98323.63;;;9.09;72.78
66547;BME280;53400;50.364;14.874;2023-05-10T04:11:42;98316.22;;;9.67;70.70
66547;BME280;53400;50.364;14.874;2023-05-10T04:14:08;98321.63;;;10.33;68.89
66547;BME280;53400;50.364;14.874;2023-05-10T04:16:34;98322.72;;;10.59;67.66
66547;BME280;53400;50.364;14.874;2023-05-10T04:19:00;98314.81;;;11.01;65.74
66547;BME280;53400;50.364;14.874;2023-05-10T04:21:27;98312.09;;;10.96;66.19
66547;BME280;53400;50.364;14.874;2023-05-10T04:23:53;98312.28;;;11.22;65.87
66547;BME280;53400;50.364;14.874;2023-05-10T04:26:19;98319.03;;;11.67;63.87
66547;BME280;53400;50.364;14.874;2023-05-10T04:28:46;98309.69;;;12.22;61.97
66547;BME280;53400;50.364;14.874;2023-05-10T04:31:12;98308.72;;;11.86;62.29
66547;BME280;53400;50.364;14.874;2023-05-10T04:33:38;98312.53;;;13.04;60.61
66547;BME280;53400;50.364;14.874;2023-05-10T04:36:05;98320.03;;;12.92;60.37
66547;BME280;53400;50.364;14.874;2023-05-10T04:38:32;98316.28;;;13.08;59.86
66547;BME280;53400;50.364;14.874;2023-05-10T04:41:05;98321.69;;;13.18;58.56
66547;BME280;53400;50.364;14.874;2023-05-10T04:43:36;98322.53;;;13.39;59.08
66547;BME280;53400;50.364;14.874;2023-05-10T04:46:02;98323.78;;;13.77;58.64
66547;BME280;53400;50.364;14.874;2023-05-10T04:48:28;98316.50;;;13.78;58.44
66547;BME280;53400;50.364;14.874;2023-05-10T04:50:54;98317.03;;;14.50;55.85
66547;BME280;53400;50.364;14.874;2023-05-10T04:53:20;98314.63;;;13.89;56.88
66547;BME280;53400;50.364;14.874;2023-05-10T04:55:48;98316.25;;;14.55;56.82
66547;BME280;53400;50.364;14.874;2023-05-10T04:58:14;98320.59;;;15.24;54.82
66547;BME280;53400;50.364;14.874;2023-05-10T05:00:44;98319.19;;;15.37;53.68
66547;BME280;53400;50.364;14.874;2023-05-10T05:03:09;98329.66;;;15.09;53.69
66547;BME280;53400;50.364;14.874;2023-05-10T05:05:36;98325.06;;;15.73;53.04
66547;BME280;53400;50.364;14.874;2023-05-10T05:08:02;98326.31;;;16.29;51.85
66547;BME280;53400;50.364;14.874;2023-05-10T05:10:28;98326.00;;;15.24;54.02
66547;BME280;53400;50.364;14.874;2023-05-10T05:12:55;98324.44;;;15.18;55.49
66547;BME280;53400;50.364;14.874;2023-05-10T05:15:24;98319.75;;;14.50;56.03
66547;BME280;53400;50.364;14.874;2023-05-10T05:17:50;98322.28;;;14.81;55.03
66547;BME280;53400;50.364;14.874;2023-05-10T05:20:16;98318.69;;;14.51;56.46
66547;BME280;53400;50.364;14.874;2023-05-10T05:22:42;98320.44;;;15.45;53.33
66547;BME280;53400;50.364;14.874;2023-05-10T05:25:09;98319.34;;;14.17;55.88
66547;BME280;53400;50.364;14.874;2023-05-10T05:27:35;98321.03;;;14.03;56.69
66547;BME280;53400;50.364;14.874;2023-05-10T05:30:04;98314.84;;;15.07;55.77
66547;BME280;53400;50.364;14.874;2023-05-10T05:32:30;98316.56;;;16.09;53.08
66547;BME280;53400;50.364;14.874;2023-05-10T05:34:56;98308.69;;;15.59;53.26
66547;BME280;53400;50.364;14.874;2023-05-10T05:37:22;98312.25;;;14.91;55.33
66547;BME280;53400;50.364;14.874;2023-05-10T05:39:48;98309.38;;;15.12;54.69
66547;BME280;53400;50.364;14.874;2023-05-10T05:42:14;98306.56;;;14.93;55.36
66547;BME280;53400;50.364;14.874;2023-05-10T05:44:42;98309.03;;;14.89;55.82
66547;BME280;53400;50.364;14.874;2023-05-10T05:47:09;98297.44;;;15.23;55.08
66547;BME280;53400;50.364;14.874;2023-05-10T05:49:36;98307.28;;;15.38;54.40
66547;BME280;53400;50.364;14.874;2023-05-10T05:52:03;98313.75;;;15.08;55.05
66547;BME280;53400;50.364;14.874;2023-05-10T05:54:29;98303.75;;;14.69;56.63
66547;BME280;53400;50.364;14.874;2023-05-10T05:56:56;98304.84;;;14.68;56.94
66547;BME280;53400;50.364;14.874;2023-05-10T05:59:22;98294.84;;;15.13;55.05
66547;BME280;53400;50.364;14.874;2023-05-10T06:01:48;98304.72;;;15.23;54.83
66547;BME280;53400;50.364;14.874;2023-05-10T06:04:16;98308.13;;;14.00;56.39
66547;BME280;53400;50.364;14.874;2023-05-10T06:06:42;98290.84;;;15.00;55.87
66547;BME280;53400;50.364;14.874;2023-05-10T06:09:08;98301.13;;;14.64;56.84
66547;BME280;53400;50.364;14.874;2023-05-10T06:11:35;98302.28;;;14.87;56.33
66547;BME280;53400;50.364;14.874;2023-05-10T06:14:01;98314.44;;;13.54;60.29
66547;BME280;53400;50.364;14.874;2023-05-10T06:16:29;98300.31;;;13.93;58.31
66547;BME280;53400;50.364;14.874;2023-05-10T06:18:55;98289.25;;;14.60;57.05
66547;BME280;53400;50.364;14.874;2023-05-10T06:21:23;98306.03;;;13.76;59.19
66547;BME280;53400;50.364;14.874;2023-05-10T06:23:48;98299.31;;;13.74;60.14
66547;BME280;53400;50.364;14.874;2023-05-10T06:26:15;98299.38;;;14.23;58.51
66547;BME280;53400;50.364;14.874;2023-05-10T06:28:41;98303.16;;;14.28;58.87
66547;BME280;53400;50.364;14.874;2023-05-10T06:31:07;98308.50;;;14.38;57.41
66547;BME280;53400;50.364;14.874;2023-05-10T06:33:33;98298.47;;;14.54;57.29
66547;BME280;53400;50.364;14.874;2023-05-10T06:36:00;98299.25;;;14.99;56.32
66547;BME280;53400;50.364;14.874;2023-05-10T06:38:27;98296.06;;;14.42;57.91
66547;BME280;53400;50.364;14.874;2023-05-10T06:40:53;98299.09;;;14.30;59.02
66547;BME280;53400;50.364;14.874;2023-05-10T06:43:19;98298.19;;;14.55;59.07
66547;BME280;53400;50.364;14.874;2023-05-10T06:45:46;98295.97;;;14.13;60.31
66547;BME280;53400;50.364;14.874;2023-05-10T06:48:11;98297.03;;;14.66;58.45
66547;BME280;53400;50.364;14.874;2023-05-10T06:50:37;98290.63;;;14.57;58.88
66547;BME280;53400;50.364;14.874;2023-05-10T06:53:03;98276.81;;;15.37;57.50
66547;BME280;53400;50.364;14.874;2023-05-10T06:55:31;98284.28;;;15.17;57.30
66547;BME280;53400;50.364;14.874;2023-05-10T06:57:57;98280.28;;;15.67;56.51
66547;BME280;53400;50.364;14.874;2023-05-10T07:00:23;98287.91;;;16.13;55.22
66547;BME280;53400;50.364;14.874;2023-05-10T07:02:49;98279.56;;;15.27;57.62
66547;BME280;53400;50.364;14.874;2023-05-10T07:05:17;98280.78;;;15.98;55.58
66547;BME280;53400;50.364;14.874;2023-05-10T07:07:42;98284.25;;;16.23;54.88
66547;BME280;53400;50.364;14.874;2023-05-10T07:10:09;98282.50;;;15.60;55.62
66547;BME280;53400;50.364;14.874;2023-05-10T07:12:37;98281.44;;;15.85;56.54
66547;BME280;53400;50.364;14.874;2023-05-10T07:15:04;98282.78;;;15.88;55.55
66547;BME280;53400;50.364;14.874;2023-05-10T07:17:30;98282.91;;;15.77;55.74
66547;BME280;53400;50.364;14.874;2023-05-10T07:19:59;98269.19;;;15.74;56.01
66547;BME280;53400;50.364;14.874;2023-05-10T07:22:25;98278.06;;;15.45;56.70
66547;BME280;53400;50.364;14.874;2023-05-10T07:24:52;98276.47;;;14.76;57.96
66547;BME280;53400;50.364;14.874;2023-05-10T07:27:17;98270.28;;;15.44;56.70
66547;BME280;53400;50.364;14.874;2023-05-10T07:29:45;98271.63;;;15.41;56.13
66547;BME280;53400;50.364;14.874;2023-05-10T07:32:11;98268.09;;;15.17;56.96
66547;BME280;53400;50.364;14.874;2023-05-10T07:34:37;98265.50;;;15.59;57.31
66547;BME280;53400;50.364;14.874;2023-05-10T07:37:03;98263.06;;;16.11;55.80
66547;BME280;53400;50.364;14.874;2023-05-10T07:39:29;98267.56;;;15.73;55.89
66547;BME280;53400;50.364;14.874;2023-05-10T07:41:55;98270.56;;;15.95;56.21
66547;BME280;53400;50.364;14.874;2023-05-10T07:44:21;98272.50;;;15.90;57.04
66547;BME280;53400;50.364;14.874;2023-05-10T07:46:49;98261.16;;;16.31;55.31
66547;BME280;53400;50.364;14.874;2023-05-10T07:49:15;98271.50;;;16.28;54.35
66547;BME280;53400;50.364;14.874;2023-05-10T07:51:41;98267.69;;;16.48;54.67
66547;BME280;53400;50.364;14.874;2023-05-10T07:54:08;98279.72;;;16.80;54.19
66547;BME280;53400;50.364;14.874;2023-05-10T07:56:34;98279.06;;;16.26;55.51
66547;BME280;53400;50.364;14.874;2023-05-10T07:59:01;98279.38;;;16.44;56.28
66547;BME280;53400;50.364;14.874;2023-05-10T08:01:30;98268.84;;;16.99;54.27
66547;BME280;53400;50.364;14.874;2023-05-10T08:04:00;98269.53;;;16.91;54.82
66547;BME280;53400;50.364;14.874;2023-05-10T08:06:26;98267.97;;;16.28;54.53
66547;BME280;53400;50.364;14.874;2023-05-10T08:08:54;98274.19;;;16.47;54.32
66547;BME280;53400;50.364;14.874;2023-05-10T08:11:21;98282.69;;;16.60;54.60
66547;BME280;53400;50.364;14.874;2023-05-10T08:13:48;98268.41;;;17.11;53.04
66547;BME280;53400;50.364;14.874;2023-05-10T08:16:15;98269.47;;;17.42;52.41
66547;BME280;53400;50.364;14.874;2023-05-10T08:18:41;98270.47;;;17.47;52.76
66547;BME280;53400;50.364;14.874;2023-05-10T08:21:09;98268.88;;;17.46;52.08
66547;BME280;53400;50.364;14.874;2023-05-10T08:23:37;98264.53;;;17.31;52.41
66547;BME280;53400;50.364;14.874;2023-05-10T08:26:03;98262.53;;;17.23;52.42
66547;BME280;53400;50.364;14.874;2023-05-10T08:28:29;98273.22;;;16.95;52.41
66547;BME280;53400;50.364;14.874;2023-05-10T08:30:55;98266.28;;;17.08;53.47
66547;BME280;53400;50.364;14.874;2023-05-10T08:33:21;98272.09;;;17.15;53.24
66547;BME280;53400;50.364;14.874;2023-05-10T08:35:47;98267.59;;;17.71;50.67
66547;BME280;53400;50.364;14.874;2023-05-10T08:38:15;98265.00;;;17.79;50.81
66547;BME280;53400;50.364;14.874;2023-05-10T08:40:42;98264.28;;;18.29;51.52
66547;BME280;53400;50.364;14.874;2023-05-10T08:43:12;98259.81;;;18.47;48.99
66547;BME280;53400;50.364;14.874;2023-05-10T08:45:42;98268.97;;;18.37;50.55
66547;BME280;53400;50.364;14.874;2023-05-10T08:48:10;98262.16;;;18.26;49.06
66547;BME280;53400;50.364;14.874;2023-05-10T08:50:37;98270.28;;;18.26;48.93
66547;BME280;53400;50.364;14.874;2023-05-10T08:53:05;98252.34;;;18.30;49.06
66547;BME280;53400;50.364;14.874;2023-05-10T08:55:33;98271.97;;;18.49;48.91
66547;BME280;53400;50.364;14.874;2023-05-10T08:57:59;98258.13;;;18.51;47.94
66547;BME280;53400;50.364;14.874;2023-05-10T09:00:27;98248.50;;;18.67;48.72
66547;BME280;53400;50.364;14.874;2023-05-10T09:02:54;98252.75;;;18.73;48.92
66547;BME280;53400;50.364;14.874;2023-05-10T09:05:20;98253.94;;;18.81;49.81
66547;BME280;53400;50.364;14.874;2023-05-10T09:07:46;98269.00;;;18.96;49.76
66547;BME280;53400;50.364;14.874;2023-05-10T09:10:13;98273.72;;;19.04;48.67
66547;BME280;53400;50.364;14.874;2023-05-10T09:12:41;98266.31;;;18.96;48.35
66547;BME280;53400;50.364;14.874;2023-05-10T09:15:09;98257.44;;;19.27;48.37
66547;BME280;53400;50.364;14.874;2023-05-10T09:17:35;98262.44;;;18.88;49.56
66547;BME280;53400;50.364;14.874;2023-05-10T09:20:03;98261.84;;;19.22;47.99
66547;BME280;53400;50.364;14.874;2023-05-10T09:22:33;98263.59;;;18.73;48.81
66547;BME280;53400;50.364;14.874;2023-05-10T09:25:06;98269.16;;;19.13;49.23
66547;BME280;53400;50.364;14.874;2023-05-10T09:27:34;98257.19;;;19.45;47.65
66547;BME280;53400;50.364;14.874;2023-05-10T09:30:01;98259.47;;;19.52;46.43
66547;BME280;53400;50.364;14.874;2023-05-10T09:32:37;98261.50;;;18.93;47.69
66547;BME280;53400;50.364;14.874;2023-05-10T09:35:10;98263.03;;;19.08;48.21
66547;BME280;53400;50.364;14.874;2023-05-10T09:37:36;98256.16;;;18.65;48.39
66547;BME280;53400;50.364;14.874;2023-05-10T09:40:06;98263.00;;;18.99;49.35
66547;BME280;53400;50.364;14.874;2023-05-10T09:42:34;98269.16;;;18.91;47.33
66547;BME280;53400;50.364;14.874;2023-05-10T09:45:02;98266.81;;;18.75;48.94
66547;BME280;53400;50.364;14.874;2023-05-10T09:47:32;98253.84;;;18.22;50.28
66547;BME280;53400;50.364;14.874;2023-05-10T09:49:58;98266.44;;;18.91;49.46
66547;BME280;53400;50.364;14.874;2023-05-10T09:52:29;98259.97;;;18.78;48.52
66547;BME280;53400;50.364;14.874;2023-05-10T09:54:55;98245.59;;;18.77;49.68
66547;BME280;53400;50.364;14.874;2023-05-10T09:57:22;98254.84;;;19.53;49.35
66547;BME280;53400;50.364;14.874;2023-05-10T09:59:48;98255.13;;;19.20;47.01
66547;BME280;53400;50.364;14.874;2023-05-10T10:02:16;98257.84;;;19.20;48.27
66547;BME280;53400;50.364;14.874;2023-05-10T10:04:43;98258.88;;;19.95;47.80
66547;BME280;53400;50.364;14.874;2023-05-10T10:07:11;98254.88;;;19.61;48.77
66547;BME280;53400;50.364;14.874;2023-05-10T10:09:38;98252.66;;;19.63;48.55
66547;BME280;53400;50.364;14.874;2023-05-10T10:12:05;98249.75;;;19.29;48.49
66547;BME280;53400;50.364;14.874;2023-05-10T10:14:31;98255.72;;;19.39;47.81
66547;BME280;53400;50.364;14.874;2023-05-10T10:17:00;98242.88;;;20.02;47.53
66547;BME280;53400;50.364;14.874;2023-05-10T10:19:28;98249.94;;;20.03;48.25
66547;BME280;53400;50.364;14.874;2023-05-10T10:21:54;98256.38;;;20.25;46.30
66547;BME280;53400;50.364;14.874;2023-05-10T10:24:20;98250.88;;;19.99;47.01
66547;BME280;53400;50.364;14.874;2023-05-10T10:26:46;98263.84;;;20.02;47.13
66547;BME280;53400;50.364;14.874;2023-05-10T10:29:23;98251.63;;;20.56;46.53
66547;BME280;53400;50.364;14.874;2023-05-10T10:31:55;98248.59;;;20.75;44.64
66547;BME280;53400;50.364;14.874;2023-05-10T10:34:29;98240.28;;;20.72;45.22
66547;BME280;53400;50.364;14.874;2023-05-10T10:36:57;98242.69;;;20.82;45.90
66547;BME280;53400;50.364;14.874;2023-05-10T10:39:23;98246.53;;;20.64;46.62
66547;BME280;53400;50.364;14.874;2023-05-10T10:41:53;98244.25;;;21.09;44.98
66547;BME280;53400;50.364;14.874;2023-05-10T10:44:33;98254.31;;;21.17;45.24
66547;BME280;53400;50.364;14.874;2023-05-10T10:47:06;98250.44;;;20.23;46.97
66547;BME280;53400;50.364;14.874;2023-05-10T10:49:42;98247.88;;;20.17;47.91
66547;BME280;53400;50.364;14.874;2023-05-10T10:52:22;98251.00;;;20.68;47.00
66547;BME280;53400;50.364;14.874;2023-05-10T10:55:01;98244.41;;;21.04;47.53
66547;BME280;53400;50.364;14.874;2023-05-10T10:57:27;98236.75;;;20.97;45.79
66547;BME280;53400;50.364;14.874;2023-05-10T11:00:17;98246.66;;;21.02;45.81
66547;BME280;53400;50.364;14.874;2023-05-10T11:02:44;98241.69;;;20.34;47.53
66547;BME280;53400;50.364;14.874;2023-05-10T11:05:46;98238.25;;;20.11;48.80
66547;BME280;53400;50.364;14.874;2023-05-10T11:08:15;98229.47;;;19.97;48.27
66547;BME280;53400;50.364;14.874;2023-05-10T11:10:53;98232.88;;;20.37;46.58
66547;BME280;53400;50.364;14.874;2023-05-10T11:13:32;98231.13;;;20.24;45.54
66547;BME280;53400;50.364;14.874;2023-05-10T11:15:59;98232.97;;;19.98;47.64
66547;BME280;53400;50.364;14.874;2023-05-10T11:18:36;98245.16;;;20.17;47.05
66547;BME280;53400;50.364;14.874;2023-05-10T11:21:04;98229.09;;;20.56;46.98
66547;BME280;53400;50.364;14.874;2023-05-10T11:23:49;98231.91;;;20.16;49.12
66547;BME280;53400;50.364;14.874;2023-05-10T11:26:16;98228.53;;;20.19;48.07
66547;BME280;53400;50.364;14.874;2023-05-10T11:28:43;98237.28;;;19.99;48.24
66547;BME280;53400;50.364;14.874;2023-05-10T11:31:09;98227.81;;;19.79;49.43
66547;BME280;53400;50.364;14.874;2023-05-10T11:33:42;98235.72;;;20.24;48.69
66547;BME280;53400;50.364;14.874;2023-05-10T11:36:11;98237.19;;;20.38;47.63
66547;BME280;53400;50.364;14.874;2023-05-10T11:38:37;98242.97;;;20.37;47.75
66547;BME280;53400;50.364;14.874;2023-05-10T11:41:03;98237.03;;;20.35;47.34
66547;BME280;53400;50.364;14.874;2023-05-10T11:43:32;98237.53;;;20.37;48.61
66547;BME280;53400;50.364;14.874;2023-05-10T11:45:58;98239.28;;;20.24;47.39
66547;BME280;53400;50.364;14.874;2023-05-10T11:48:25;98228.72;;;20.40;48.16
66547;BME280;53400;50.364;14.874;2023-05-10T11:50:50;98234.97;;;21.01;47.79
66547;BME280;53400;50.364;14.874;2023-05-10T11:53:19;98238.91;;;21.30;46.15
66547;BME280;53400;50.364;14.874;2023-05-10T11:55:45;98243.94;;;20.93;45.76
66547;BME280;53400;50.364;14.874;2023-05-10T11:58:11;98232.91;;;20.98;46.69
66547;BME280;53400;50.364;14.874;2023-05-10T12:00:37;98235.25;;;21.26;46.58
66547;BME280;53400;50.364;14.874;2023-05-10T12:03:04;98240.13;;;20.77;46.13
66547;BME280;53400;50.364;14.874;2023-05-10T12:05:32;98234.34;;;20.87;46.11
66547;BME280;53400;50.364;14.874;2023-05-10T12:08:11;98239.19;;;20.73;46.60
66547;BME280;53400;50.364;14.874;2023-05-10T12:10:40;98242.16;;;21.15;45.94
66547;BME280;53400;50.364;14.874;2023-05-10T12:13:11;98240.97;;;21.33;42.92
66547;BME280;53400;50.364;14.874;2023-05-10T12:15:37;98240.25;;;21.15;43.40
66547;BME280;53400;50.364;14.874;2023-05-10T12:18:03;98243.38;;;21.35;44.16
66547;BME280;53400;50.364;14.874;2023-05-10T12:20:31;98247.94;;;21.04;45.30
66547;BME280;53400;50.364;14.874;2023-05-10T12:22:58;98252.25;;;21.14;45.08
66547;BME280;53400;50.364;14.874;2023-05-10T12:25:29;98247.91;;;21.22;44.85
66547;BME280;53400;50.364;14.874;2023-05-10T12:27:58;98248.59;;;20.84;46.81
66547;BME280;53400;50.364;14.874;2023-05-10T12:30:27;98247.25;;;20.12;48.26
66547;BME280;53400;50.364;14.874;2023-05-10T12:33:00;98248.88;;;20.48;48.17
66547;BME280;53400;50.364;14.874;2023-05-10T12:35:26;98246.19;;;20.56;47.58
66547;BME280;53400;50.364;14.874;2023-05-10T12:37:56;98243.78;;;20.81;48.75
66547;BME280;53400;50.364;14.874;2023-05-10T12:40:21;98252.88;;;21.11;46.65
66547;BME280;53400;50.364;14.874;2023-05-10T12:42:48;98249.72;;;20.92;46.17
66547;BME280;53400;50.364;14.874;2023-05-10T12:45:17;98249.06;;;20.69;47.58
66547;BME280;53400;50.364;14.874;2023-05-10T12:47:43;98239.09;;;20.21;47.17
66547;BME280;53400;50.364;14.874;2023-05-10T12:50:09;98240.72;;;20.22;47.63
66547;BME280;53400;50.364;14.874;2023-05-10T12:52:36;98244.72;;;20.33;47.07
66547;BME280;53400;50.364;14.874;2023-05-10T12:55:01;98243.94;;;20.50;47.12
66547;BME280;53400;50.364;14.874;2023-05-10T12:57:29;98247.41;;;20.15;48.34
66547;BME280;53400;50.364;14.874;2023-05-10T12:59:54;98258.00;;;20.34;47.74